This is the latest recevied weather packets stored in our database for station/object K7LDN-13. If no packets are shown the sender has not sent any weather packets the latest 10 day(s).
| Time | Temp. | Humidity | Pressure | Rain* | Wind** | Luminosity | Snow |
|---|---|---|---|---|---|---|---|
| 1777446712 | 4.44° C | 70% | 1023.5 hPa | 0 mm | - | 0 W/m² | - |
| 1777446407 | 4.44° C | 70% | 1023.5 hPa | 0 mm | - | 0 W/m² | - |
| 1777446104 | 4.44° C | 69% | 1023.6 hPa | 0 mm | - | 0 W/m² | - |
| 1777445801 | 4.44° C | 69% | 1023.4 hPa | 0 mm | - | 0 W/m² | - |
| 1777445496 | 4.44° C | 69% | 1023.3 hPa | 0 mm | - | 0 W/m² | - |
| 1777445193 | 4.44° C | 69% | 1023.2 hPa | 0 mm | - | 0 W/m² | - |
| 1777444890 | 5° C | 67% | 1023.2 hPa | 0 mm | - | 0 W/m² | - |
| 1777444585 | 4.44° C | 69% | 1023.5 hPa | 0 mm | - | 0 W/m² | - |
| 1777444282 | 4.44° C | 70% | 1023.3 hPa | 0 mm | - | 0 W/m² | - |
| 1777443979 | 4.44° C | 71% | 1023.4 hPa | 0 mm | - | 0 W/m² | - |
| 1777443675 | 3.89° C | 72% | 1023.3 hPa | 0 mm | - | 0 W/m² | - |
| 1777443374 | 4.44° C | 71% | 1023.2 hPa | 0 mm | - | 0 W/m² | - |
| 1777443073 | 4.44° C | 71% | 1023.4 hPa | 0 mm | - | 0 W/m² | - |
| 1777442769 | 5° C | 70% | 1023.3 hPa | 0 mm | - | 0 W/m² | - |
| 1777442465 | 5° C | 70% | 1023.4 hPa | 0 mm | - | 0 W/m² | - |
| 1777442161 | 5° C | 70% | 1023.4 hPa | 0 mm | - | 0 W/m² | - |
| 1777441856 | 5° C | 70% | 1023.4 hPa | 0 mm | - | 0 W/m² | - |
| 1777441553 | 5° C | 69% | 1023.4 hPa | 0 mm | - | 0 W/m² | - |
| 1777441249 | 5° C | 67% | 1023.5 hPa | 0 mm | - | 0 W/m² | - |
| 1777440944 | 5.56° C | 66% | 1023.2 hPa | 0 mm | - | 0 W/m² | - |
| 1777440640 | 5.56° C | 65% | 1023.4 hPa | 0 mm | - | 0 W/m² | - |
| 1777440336 | 6.11° C | 62% | 1023.5 hPa | 0 mm | - | 0 W/m² | - |
| 1777440032 | 6.67° C | 61% | 1023.4 hPa | 0 mm | - | 0 W/m² | - |
| 1777439728 | 6.11° C | 62% | 1023.4 hPa | 0 mm | - | 0 W/m² | - |
| 1777439424 | 6.67° C | 60% | 1023.4 hPa | 0 mm | - | 0 W/m² | - |
* Rain latest hour (hover to see other rain measurements)
** Current wind speed in m/s (hover to see current wind gust speed)